createdAt,value
2017-05-19T00:00:36.379Z,0
2017-05-19T00:01:17.273Z,0
2017-05-19T00:01:58.180Z,0
2017-05-19T00:02:39.081Z,0
2017-05-19T00:03:19.976Z,0
2017-05-19T00:04:00.874Z,0
2017-05-19T00:04:41.755Z,0
2017-05-19T00:05:22.677Z,0
2017-05-19T00:06:03.574Z,0
2017-05-19T00:06:44.484Z,0
2017-05-19T00:07:25.366Z,0
2017-05-19T00:08:06.262Z,0
2017-05-19T00:08:47.166Z,0
2017-05-19T00:09:28.049Z,0
2017-05-19T00:10:08.950Z,0
2017-05-19T00:10:49.836Z,0
2017-05-19T00:11:30.716Z,0
2017-05-19T00:12:11.761Z,0
2017-05-19T00:12:52.646Z,0
2017-05-19T00:13:33.552Z,0
2017-05-19T00:14:14.430Z,0
2017-05-19T00:14:55.313Z,0
2017-05-19T00:15:36.207Z,0
2017-05-19T00:16:17.108Z,0
2017-05-19T00:16:58.037Z,0
2017-05-19T00:17:38.879Z,0
2017-05-19T00:18:19.782Z,0
2017-05-19T00:19:00.689Z,0
2017-05-19T00:19:41.609Z,0
2017-05-19T00:20:22.508Z,0
2017-05-19T00:21:03.401Z,0
2017-05-19T00:21:44.298Z,0
2017-05-19T00:22:25.162Z,0
2017-05-19T00:23:06.050Z,0
2017-05-19T00:23:46.976Z,0
2017-05-19T00:24:27.871Z,0
2017-05-19T00:25:08.775Z,0
2017-05-19T00:25:49.679Z,0
2017-05-19T00:26:30.576Z,0
2017-05-19T00:27:11.470Z,0
2017-05-19T00:27:52.361Z,0
2017-05-19T00:28:33.289Z,0
2017-05-19T00:29:14.210Z,0
2017-05-19T00:29:55.094Z,0
2017-05-19T00:30:35.987Z,0
2017-05-19T00:31:16.880Z,0
2017-05-19T00:31:57.774Z,0
2017-05-19T00:32:38.668Z,0
2017-05-19T00:33:19.563Z,0
2017-05-19T00:34:00.468Z,0
2017-05-19T00:34:41.375Z,0
2017-05-19T00:35:22.273Z,0
2017-05-19T00:36:03.165Z,0
2017-05-19T00:36:44.067Z,0
2017-05-19T00:37:24.956Z,0
2017-05-19T00:38:05.857Z,0
2017-05-19T00:38:46.758Z,0
2017-05-19T00:39:27.647Z,0
2017-05-19T00:41:21.302Z,0
2017-05-19T00:42:02.192Z,0
2017-05-19T00:42:43.090Z,0
2017-05-19T00:43:23.982Z,0
2017-05-19T00:44:04.883Z,0
2017-05-19T00:44:45.776Z,0
2017-05-19T00:45:26.649Z,0
2017-05-19T00:46:07.535Z,0
2017-05-19T00:46:48.445Z,0
2017-05-19T00:47:29.329Z,0
2017-05-19T00:48:10.243Z,0
2017-05-19T00:48:51.132Z,0
2017-05-19T00:49:32.012Z,0
2017-05-19T00:50:12.913Z,0
2017-05-19T00:50:53.810Z,0
2017-05-19T00:51:34.687Z,0
2017-05-19T00:52:15.585Z,0
2017-05-19T00:52:56.516Z,0
2017-05-19T00:53:37.381Z,0
2017-05-19T00:54:18.281Z,0
2017-05-19T00:54:59.182Z,0
2017-05-19T00:55:40.103Z,0
2017-05-19T00:56:20.983Z,0
2017-05-19T00:57:01.863Z,0
2017-05-19T00:57:42.750Z,0
2017-05-19T00:58:23.664Z,0
2017-05-19T00:59:04.535Z,0
2017-05-19T00:59:45.445Z,0
2017-05-19T01:00:26.329Z,0
2017-05-19T01:01:07.210Z,0
2017-05-19T01:01:48.105Z,0
2017-05-19T01:02:29.021Z,0
2017-05-19T01:03:09.923Z,0
2017-05-19T01:03:50.825Z,0
2017-05-19T01:04:31.696Z,0
2017-05-19T01:05:12.589Z,0
2017-05-19T01:05:53.506Z,0
2017-05-19T01:06:34.375Z,0
2017-05-19T01:07:15.248Z,0
2017-05-19T01:07:56.141Z,0
2017-05-19T01:08:37.037Z,0
2017-05-19T01:09:17.917Z,0
2017-05-19T01:09:58.799Z,0
2017-05-19T01:10:39.695Z,0
2017-05-19T01:11:20.580Z,0
2017-05-19T01:12:01.475Z,0
2017-05-19T01:12:42.371Z,0
2017-05-19T01:13:23.269Z,0
2017-05-19T01:14:04.167Z,0
2017-05-19T01:14:45.063Z,0
2017-05-19T01:15:25.946Z,0
2017-05-19T01:16:06.840Z,0
2017-05-19T01:16:47.740Z,0
2017-05-19T01:17:28.621Z,0
2017-05-19T01:18:09.521Z,0
2017-05-19T01:18:50.422Z,0
2017-05-19T01:19:31.302Z,0
2017-05-19T01:20:12.197Z,0
2017-05-19T01:20:53.098Z,0
2017-05-19T01:21:33.973Z,0
2017-05-19T01:22:14.866Z,0
2017-05-19T01:22:55.773Z,0
2017-05-19T01:23:36.646Z,0
2017-05-19T01:24:17.518Z,0
2017-05-19T01:24:58.422Z,0
2017-05-19T01:25:39.314Z,0
2017-05-19T01:26:20.192Z,0
2017-05-19T01:27:01.120Z,0
2017-05-19T01:27:41.999Z,0
2017-05-19T01:28:22.898Z,0
2017-05-19T01:29:03.794Z,0
2017-05-19T01:29:44.673Z,0
2017-05-19T01:30:25.558Z,0
2017-05-19T01:31:06.476Z,0
2017-05-19T01:31:47.353Z,0
2017-05-19T01:32:28.228Z,0
2017-05-19T01:33:09.140Z,0
2017-05-19T01:33:50.016Z,0
2017-05-19T01:34:30.893Z,0
2017-05-19T01:35:11.801Z,0
2017-05-19T01:35:52.697Z,0
2017-05-19T01:36:33.591Z,0
2017-05-19T01:37:14.494Z,0
2017-05-19T01:37:55.379Z,0
2017-05-19T01:38:36.283Z,0
2017-05-19T01:39:17.218Z,0
2017-05-19T01:39:58.163Z,0
2017-05-19T01:40:39.088Z,0
2017-05-19T01:41:20.014Z,0
2017-05-19T01:42:00.931Z,0
2017-05-19T01:42:41.826Z,0
2017-05-19T01:43:22.813Z,0
2017-05-19T01:44:03.704Z,0
2017-05-19T01:44:44.621Z,0
2017-05-19T01:45:25.508Z,0
2017-05-19T01:46:06.380Z,0
2017-05-19T01:46:47.262Z,0
2017-05-19T01:47:28.160Z,0
2017-05-19T01:48:09.054Z,0
2017-05-19T01:48:49.946Z,0
2017-05-19T01:49:30.850Z,0
2017-05-19T01:50:11.740Z,0
2017-05-19T01:50:52.644Z,0
2017-05-19T01:51:33.530Z,0
2017-05-19T01:52:14.416Z,0
2017-05-19T01:52:55.318Z,0
2017-05-19T01:53:36.207Z,0
2017-05-19T01:54:17.094Z,0
2017-05-19T01:54:57.995Z,0
2017-05-19T01:55:38.884Z,0
2017-05-19T01:56:19.766Z,0
2017-05-19T01:57:00.672Z,0
2017-05-19T01:57:41.563Z,0
2017-05-19T01:58:22.445Z,0
2017-05-19T01:59:03.343Z,0
2017-05-19T01:59:44.234Z,0
2017-05-19T02:00:25.122Z,0
2017-05-19T02:01:06.035Z,0
2017-05-19T02:01:46.917Z,0
2017-05-19T02:02:27.797Z,0
2017-05-19T02:03:08.699Z,0
2017-05-19T02:03:49.604Z,0
2017-05-19T02:04:30.472Z,0
2017-05-19T02:05:11.377Z,0
2017-05-19T02:05:52.267Z,0
2017-05-19T02:06:33.148Z,0
2017-05-19T02:07:14.038Z,0
2017-05-19T02:07:54.933Z,0
2017-05-19T02:08:35.821Z,0
2017-05-19T02:09:16.723Z,0
2017-05-19T02:09:57.618Z,0
2017-05-19T02:10:38.502Z,0
2017-05-19T02:11:19.398Z,0
2017-05-19T02:12:00.292Z,0
2017-05-19T02:12:41.176Z,0
2017-05-19T02:13:22.086Z,0
2017-05-19T02:14:02.984Z,0
2017-05-19T02:14:43.882Z,0
2017-05-19T02:15:24.765Z,0
2017-05-19T02:16:05.674Z,0
2017-05-19T02:16:46.579Z,0
2017-05-19T02:17:27.490Z,0
2017-05-19T02:18:08.390Z,0
2017-05-19T02:18:49.280Z,0
2017-05-19T02:19:30.184Z,0
2017-05-19T02:20:11.097Z,0
2017-05-19T02:20:51.973Z,0
2017-05-19T02:21:32.863Z,0
2017-05-19T02:22:13.769Z,0
2017-05-19T02:22:54.655Z,4
2017-05-19T02:23:35.550Z,4
2017-05-19T02:24:16.445Z,4
2017-05-19T02:24:57.328Z,4
2017-05-19T02:25:38.222Z,4
2017-05-19T02:26:19.123Z,0
2017-05-19T02:27:00.003Z,0
2017-05-19T02:27:40.900Z,0
2017-05-19T02:28:21.796Z,4
2017-05-19T02:29:02.677Z,4
2017-05-19T02:29:43.579Z,4
2017-05-19T02:30:24.470Z,4
2017-05-19T02:31:05.345Z,4
2017-05-19T02:31:46.242Z,4
2017-05-19T02:32:27.147Z,4
2017-05-19T02:33:08.030Z,4
2017-05-19T02:33:48.945Z,4
2017-05-19T02:34:29.830Z,8
2017-05-19T02:35:10.702Z,4
2017-05-19T02:35:51.643Z,8
2017-05-19T02:36:32.495Z,8
2017-05-19T02:37:13.379Z,8
2017-05-19T02:37:54.273Z,8
2017-05-19T02:38:35.161Z,8
2017-05-19T02:39:16.056Z,8
2017-05-19T02:39:56.952Z,12
2017-05-19T02:40:37.847Z,12
2017-05-19T02:41:18.739Z,12
2017-05-19T02:41:59.630Z,16
2017-05-19T02:42:40.528Z,16
2017-05-19T02:43:21.411Z,16
2017-05-19T02:44:02.302Z,16
2017-05-19T02:44:43.200Z,16
2017-05-19T02:45:24.072Z,20
2017-05-19T02:46:04.952Z,20
2017-05-19T02:46:45.851Z,24
2017-05-19T02:47:26.738Z,28
2017-05-19T02:48:07.620Z,32
2017-05-19T02:48:48.510Z,32
2017-05-19T02:49:29.397Z,36
2017-05-19T02:50:10.277Z,36
2017-05-19T02:50:51.157Z,40
2017-05-19T02:51:32.066Z,40
2017-05-19T02:52:12.960Z,44
2017-05-19T02:52:53.908Z,48
2017-05-19T02:53:34.785Z,52
2017-05-19T02:54:15.677Z,56
2017-05-19T02:54:56.579Z,60
2017-05-19T02:55:37.452Z,64
2017-05-19T02:56:18.335Z,68
2017-05-19T02:56:59.234Z,68
2017-05-19T02:57:40.117Z,76
2017-05-19T02:58:21.040Z,80
2017-05-19T02:59:01.913Z,84
2017-05-19T02:59:42.794Z,88
2017-05-19T03:00:23.677Z,96
2017-05-19T03:01:04.570Z,104
2017-05-19T03:01:45.448Z,108
2017-05-19T03:02:26.326Z,112
2017-05-19T03:03:07.225Z,124
2017-05-19T03:03:48.118Z,128
2017-05-19T03:04:29.001Z,136
2017-05-19T03:05:09.887Z,144
2017-05-19T03:05:50.802Z,152
2017-05-19T03:06:31.676Z,160
2017-05-19T03:07:12.560Z,164
2017-05-19T03:07:53.478Z,176
2017-05-19T03:08:34.365Z,184
2017-05-19T03:09:15.275Z,192
2017-05-19T03:09:56.171Z,204
2017-05-19T03:10:37.057Z,212
2017-05-19T03:11:17.993Z,220
2017-05-19T03:11:58.887Z,232
2017-05-19T03:12:39.785Z,240
2017-05-19T03:13:20.676Z,248
2017-05-19T03:14:01.571Z,264
2017-05-19T03:14:42.459Z,272
2017-05-19T03:15:23.354Z,284
2017-05-19T03:16:04.236Z,296
2017-05-19T03:16:45.130Z,304
2017-05-19T03:17:26.019Z,316
2017-05-19T03:18:06.916Z,328
2017-05-19T03:18:47.815Z,340
2017-05-19T03:19:28.704Z,352
2017-05-19T03:20:09.594Z,364
2017-05-19T03:20:50.485Z,376
2017-05-19T03:21:31.373Z,388
2017-05-19T03:22:12.288Z,400
2017-05-19T03:22:53.185Z,412
2017-05-19T03:23:34.072Z,428
2017-05-19T03:24:14.980Z,440
2017-05-19T03:24:55.863Z,452
2017-05-19T03:25:36.747Z,464
2017-05-19T03:26:17.647Z,476
2017-05-19T03:26:58.537Z,492
2017-05-19T03:27:39.426Z,504
2017-05-19T03:28:20.321Z,516
2017-05-19T03:29:01.217Z,528
2017-05-19T03:29:42.115Z,544
2017-05-19T03:30:23.016Z,556
2017-05-19T03:31:03.944Z,572
2017-05-19T03:31:44.776Z,584
2017-05-19T03:32:25.670Z,600
2017-05-19T03:33:06.568Z,612
2017-05-19T03:33:47.447Z,624
2017-05-19T03:34:28.346Z,640
2017-05-19T03:35:09.247Z,652
2017-05-19T03:35:50.102Z,668
2017-05-19T03:36:30.994Z,684
2017-05-19T03:37:11.903Z,696
2017-05-19T03:37:52.790Z,712
2017-05-19T03:38:33.686Z,728
2017-05-19T03:39:14.581Z,736
2017-05-19T03:39:55.476Z,756
2017-05-19T03:40:36.381Z,768
2017-05-19T03:41:17.261Z,784
2017-05-19T03:41:58.163Z,796
2017-05-19T03:42:39.072Z,812
2017-05-19T03:43:19.961Z,828
2017-05-19T03:44:00.869Z,844
2017-05-19T03:44:41.764Z,860
2017-05-19T03:45:22.642Z,872
2017-05-19T03:46:03.548Z,888
2017-05-19T03:46:44.440Z,900
2017-05-19T03:47:25.317Z,920
2017-05-19T03:48:06.206Z,932
2017-05-19T03:48:47.105Z,944
2017-05-19T03:49:27.995Z,960
2017-05-19T03:50:08.913Z,972
2017-05-19T03:50:49.792Z,988
2017-05-19T03:51:30.668Z,1000
2017-05-19T03:52:11.553Z,1016
2017-05-19T03:52:52.444Z,1028
2017-05-19T03:53:33.350Z,1048
2017-05-19T03:54:14.253Z,1060
2017-05-19T03:54:55.138Z,1072
2017-05-19T03:55:36.027Z,1088
2017-05-19T03:56:16.934Z,1100
2017-05-19T03:56:57.806Z,1120
2017-05-19T03:57:38.682Z,1132
2017-05-19T03:58:19.556Z,1144
2017-05-19T03:59:00.462Z,1160
2017-05-19T03:59:41.347Z,1172
2017-05-19T04:00:22.227Z,1188
2017-05-19T04:01:03.152Z,1200
2017-05-19T04:01:44.041Z,1216
2017-05-19T04:02:24.945Z,1232
2017-05-19T04:03:05.832Z,1248
2017-05-19T04:03:46.707Z,1268
2017-05-19T04:04:27.616Z,1280
2017-05-19T04:05:08.504Z,1300
2017-05-19T04:05:49.368Z,1320
2017-05-19T04:06:30.246Z,1328
2017-05-19T04:07:11.186Z,1344
2017-05-19T04:07:52.054Z,1364
2017-05-19T04:08:32.955Z,1380
2017-05-19T04:09:13.859Z,1396
2017-05-19T04:09:54.745Z,1416
2017-05-19T04:10:35.640Z,1440
2017-05-19T04:11:16.536Z,1464
2017-05-19T04:11:57.423Z,1476
2017-05-19T04:12:38.315Z,1500
2017-05-19T04:13:19.214Z,1512
2017-05-19T04:14:00.098Z,1528
2017-05-19T04:14:40.996Z,1552
2017-05-19T04:15:21.930Z,1564
2017-05-19T04:16:02.833Z,1588
2017-05-19T04:16:43.732Z,1604
2017-05-19T04:17:24.621Z,1620
2017-05-19T04:18:05.513Z,1636
2017-05-19T04:18:46.401Z,1656
2017-05-19T04:19:27.282Z,1672
2017-05-19T04:20:08.202Z,1688
2017-05-19T04:20:49.084Z,1704
2017-05-19T04:21:29.970Z,1720
2017-05-19T04:22:10.869Z,1736
2017-05-19T04:22:51.764Z,1756
2017-05-19T04:23:32.660Z,1772
2017-05-19T04:24:13.577Z,1788
2017-05-19T04:24:54.434Z,1800
2017-05-19T04:25:35.333Z,1812
2017-05-19T04:26:16.228Z,1832
2017-05-19T04:26:57.119Z,1840
2017-05-19T04:27:38.003Z,1868
2017-05-19T04:28:18.905Z,1876
2017-05-19T04:28:59.788Z,1904
2017-05-19T04:29:40.681Z,1896
2017-05-19T04:30:21.581Z,1912
2017-05-19T04:31:02.601Z,1932
2017-05-19T04:31:43.500Z,1936
2017-05-19T04:32:24.383Z,1952
2017-05-19T04:33:05.335Z,1972
2017-05-19T04:33:46.175Z,1980
2017-05-19T04:34:27.063Z,1996
2017-05-19T04:35:07.963Z,2008
2017-05-19T04:35:48.856Z,2016
2017-05-19T04:36:29.742Z,2036
2017-05-19T04:38:44.130Z,2080
2017-05-19T04:39:25.022Z,2088
2017-05-19T04:40:05.900Z,2100
2017-05-19T04:40:46.805Z,2116
2017-05-19T04:41:27.706Z,2124
2017-05-19T04:42:08.579Z,2156
2017-05-19T04:42:49.474Z,2156
2017-05-19T04:43:30.370Z,2188
2017-05-19T04:44:11.257Z,2204
2017-05-19T04:44:52.151Z,2216
2017-05-19T04:45:33.046Z,2240
2017-05-19T04:46:13.934Z,2252
2017-05-19T04:46:54.818Z,2280
2017-05-19T04:47:35.749Z,2288
2017-05-19T04:48:16.661Z,2308
2017-05-19T04:48:57.553Z,2332
2017-05-19T04:49:38.429Z,2340
2017-05-19T04:50:19.330Z,2360
2017-05-19T04:51:00.221Z,2376
2017-05-19T04:51:41.097Z,2384
2017-05-19T04:52:21.988Z,2404
2017-05-19T04:53:02.891Z,2428
2017-05-19T04:53:43.780Z,2424
2017-05-19T04:54:24.667Z,2436
2017-05-19T04:55:05.565Z,2452
2017-05-19T04:55:46.456Z,2464
2017-05-19T04:56:27.348Z,2484
2017-05-19T04:57:08.272Z,2504
2017-05-19T04:57:49.113Z,2520
2017-05-19T04:58:29.982Z,2548
2017-05-19T04:59:10.867Z,2556
2017-05-19T04:59:51.767Z,2580
2017-05-19T05:00:32.651Z,2604
2017-05-19T05:01:13.529Z,2616
2017-05-19T05:01:54.431Z,2632
2017-05-19T05:02:35.325Z,2660
2017-05-19T05:03:16.206Z,2684
2017-05-19T05:03:57.104Z,2708
2017-05-19T05:04:38.121Z,2728
2017-05-19T05:05:19.013Z,2760
2017-05-19T05:05:59.915Z,2772
2017-05-19T05:06:40.792Z,2780
2017-05-19T05:07:21.682Z,2800
2017-05-19T05:08:02.592Z,2804
2017-05-19T05:08:43.453Z,2820
2017-05-19T05:09:24.332Z,2832
2017-05-19T05:10:05.224Z,2848
2017-05-19T05:10:46.118Z,2860
2017-05-19T05:11:27.005Z,2872
2017-05-19T05:12:07.893Z,2880
2017-05-19T05:12:48.794Z,2900
2017-05-19T05:13:29.673Z,2908
2017-05-19T05:14:10.555Z,2936
2017-05-19T05:14:51.459Z,2956
2017-05-19T05:15:32.366Z,2964
2017-05-19T05:16:13.265Z,2988
2017-05-19T05:16:54.170Z,3012
2017-05-19T05:17:35.027Z,3032
2017-05-19T05:18:15.915Z,3052
2017-05-19T05:18:56.819Z,3080
2017-05-19T05:19:37.706Z,3120
2017-05-19T05:20:18.614Z,3120
2017-05-19T05:20:59.522Z,3160
2017-05-19T05:21:40.436Z,3160
2017-05-19T05:22:21.332Z,3188
2017-05-19T05:23:02.233Z,3192
2017-05-19T05:23:43.126Z,3212
2017-05-19T05:24:24.016Z,3220
2017-05-19T05:25:04.914Z,3244
2017-05-19T05:25:45.807Z,3268
2017-05-19T05:26:26.691Z,3292
2017-05-19T05:27:07.621Z,3320
2017-05-19T05:27:48.501Z,3356
2017-05-19T05:28:29.389Z,3376
2017-05-19T05:29:10.283Z,3412
2017-05-19T05:29:51.179Z,3448
2017-05-19T05:30:32.075Z,3480
2017-05-19T05:31:12.976Z,3532
2017-05-19T05:31:53.863Z,3564
2017-05-19T05:32:34.741Z,3576
2017-05-19T05:33:15.639Z,3600
2017-05-19T05:33:56.531Z,3620
2017-05-19T05:34:37.483Z,3656
2017-05-19T05:35:18.323Z,3680
2017-05-19T05:35:59.216Z,3704
2017-05-19T05:36:40.111Z,3728
2017-05-19T05:37:21.004Z,3760
2017-05-19T05:38:01.894Z,3788
2017-05-19T05:38:42.789Z,3836
2017-05-19T05:39:23.676Z,3864
2017-05-19T05:40:04.713Z,3944
2017-05-19T05:40:45.524Z,3960
2017-05-19T05:41:26.429Z,3980
2017-05-19T05:42:07.313Z,4036
2017-05-19T05:42:48.236Z,4068
2017-05-19T05:43:29.167Z,4096
2017-05-19T05:44:10.045Z,4132
2017-05-19T05:44:50.939Z,4168
2017-05-19T05:45:31.840Z,4200
2017-05-19T05:46:12.723Z,4248
2017-05-19T05:46:53.613Z,4284
2017-05-19T05:47:34.485Z,4320
2017-05-19T05:48:15.414Z,4372
2017-05-19T05:48:56.310Z,4396
2017-05-19T05:49:37.228Z,4432
2017-05-19T05:50:18.124Z,4480
2017-05-19T05:50:59.010Z,4524
2017-05-19T05:51:39.908Z,4576
2017-05-19T05:52:20.826Z,4632
2017-05-19T05:53:01.719Z,4680
2017-05-19T05:53:42.664Z,4748
2017-05-19T05:54:23.570Z,4808
2017-05-19T05:55:04.477Z,4868
2017-05-19T05:55:45.384Z,4932
2017-05-19T05:56:27.139Z,5000
2017-05-19T05:57:08.052Z,5084
2017-05-19T05:57:48.951Z,5152
2017-05-19T05:58:29.841Z,5228
2017-05-19T05:59:10.746Z,5308
2017-05-19T05:59:51.652Z,5396
2017-05-19T06:00:32.536Z,5496
2017-05-19T06:01:13.427Z,5608
2017-05-19T06:01:54.327Z,5704
2017-05-19T06:02:35.217Z,5840
2017-05-19T06:03:16.111Z,5948
2017-05-19T06:03:57.012Z,6084
2017-05-19T06:04:37.917Z,6220
2017-05-19T06:05:18.803Z,6352
2017-05-19T06:05:59.721Z,6484
2017-05-19T06:06:40.621Z,6636
2017-05-19T06:07:21.530Z,6772
2017-05-19T06:08:02.435Z,6940
2017-05-19T06:08:43.350Z,7128
2017-05-19T06:09:24.288Z,7272
2017-05-19T06:10:05.243Z,7440
2017-05-19T06:10:46.148Z,7588
2017-05-19T06:11:27.058Z,7780
2017-05-19T06:13:25.822Z,8336
2017-05-19T06:14:06.704Z,8512
2017-05-19T06:14:47.610Z,8652
2017-05-19T06:15:28.500Z,8768
2017-05-19T06:16:09.407Z,8868
2017-05-19T06:16:50.307Z,8964
2017-05-19T06:17:31.238Z,9084
2017-05-19T06:18:12.128Z,9196
2017-05-19T06:18:53.037Z,9356
2017-05-19T06:19:33.945Z,9508
2017-05-19T06:20:14.847Z,9660
2017-05-19T06:20:55.730Z,9804
2017-05-19T06:21:36.632Z,9876
2017-05-19T06:22:17.521Z,9916
2017-05-19T06:22:58.482Z,9956
2017-05-19T06:23:39.391Z,10072
2017-05-19T06:24:20.270Z,10208
2017-05-19T06:25:01.201Z,10336
2017-05-19T06:25:42.091Z,10412
2017-05-19T06:26:22.985Z,10472
2017-05-19T06:27:03.898Z,10512
2017-05-19T06:27:44.827Z,10552
2017-05-19T06:28:25.744Z,10608
2017-05-19T06:29:06.700Z,10620
2017-05-19T06:29:47.550Z,10676
2017-05-19T06:30:28.529Z,10712
2017-05-19T06:31:09.495Z,10740
2017-05-19T06:31:50.403Z,10756
2017-05-19T06:32:31.375Z,10784
2017-05-19T06:33:12.274Z,10808
2017-05-19T06:33:53.188Z,10844
2017-05-19T06:34:34.089Z,10784
2017-05-19T06:35:15.021Z,11000
2017-05-19T06:35:55.893Z,11044
2017-05-19T06:36:36.805Z,11048
2017-05-19T06:37:17.712Z,11000
2017-05-19T06:37:58.605Z,11084
2017-05-19T06:38:39.497Z,11104
2017-05-19T06:39:20.436Z,11132
2017-05-19T06:40:01.314Z,11136
2017-05-19T06:40:42.220Z,11152
2017-05-19T06:41:23.107Z,11172
2017-05-19T06:42:04.163Z,11196
2017-05-19T06:42:45.063Z,11212
2017-05-19T06:43:25.974Z,11228
2017-05-19T06:44:06.869Z,11256
2017-05-19T06:44:47.874Z,11312
2017-05-19T06:45:28.745Z,11316
2017-05-19T06:46:09.670Z,11344
2017-05-19T06:46:50.563Z,11380
2017-05-19T06:47:31.458Z,11384
2017-05-19T06:48:12.364Z,11420
2017-05-19T06:48:53.267Z,11452
2017-05-19T06:49:34.164Z,11460
2017-05-19T06:50:15.066Z,11464
2017-05-19T06:50:55.983Z,11488
2017-05-19T06:51:36.915Z,11512
2017-05-19T06:52:17.809Z,11528
2017-05-19T06:52:58.718Z,11556
2017-05-19T06:53:39.636Z,11572
2017-05-19T06:54:20.535Z,11600
2017-05-19T06:55:01.447Z,11624
2017-05-19T06:55:42.360Z,11700
2017-05-19T06:56:23.270Z,11692
2017-05-19T06:57:04.196Z,11688
2017-05-19T06:57:45.104Z,11712
2017-05-19T06:58:26.015Z,11736
2017-05-19T06:59:06.925Z,11788
2017-05-19T06:59:47.834Z,11800
2017-05-19T07:00:28.736Z,11820
2017-05-19T07:01:09.647Z,11836
2017-05-19T07:01:50.561Z,11864
2017-05-19T07:02:31.474Z,11876
2017-05-19T07:03:12.378Z,11916
2017-05-19T07:03:53.286Z,11960
2017-05-19T07:04:34.187Z,11988
2017-05-19T07:05:15.109Z,12084
2017-05-19T07:05:56.017Z,12084
2017-05-19T07:06:36.912Z,12144
2017-05-19T07:07:17.812Z,12208
2017-05-19T07:07:58.723Z,12304
2017-05-19T07:08:39.627Z,12444
2017-05-19T07:09:20.532Z,12676
2017-05-19T07:10:01.441Z,13060
2017-05-19T07:10:42.362Z,14176
2017-05-19T07:11:23.260Z,19488
2017-05-19T07:12:04.175Z,29856
2017-05-19T07:12:45.077Z,40864
2017-05-19T07:13:25.980Z,48992
2017-05-19T07:14:06.896Z,52416
2017-05-19T07:14:47.813Z,54240
2017-05-19T07:15:28.722Z,57280
2017-05-19T07:16:09.624Z,59712
2017-05-19T07:16:50.521Z,61120
2017-05-19T07:17:31.436Z,61792
2017-05-19T07:18:12.351Z,59904
2017-05-19T07:18:53.267Z,53504
2017-05-19T07:19:34.180Z,50592
2017-05-19T07:20:15.093Z,50464
2017-05-19T07:20:55.994Z,54336
2017-05-19T07:21:36.905Z,58624
2017-05-19T07:22:17.803Z,58592
2017-05-19T07:22:58.710Z,58784
2017-05-19T07:23:39.635Z,59392
2017-05-19T07:24:20.535Z,59488
2017-05-19T07:25:01.436Z,55072
2017-05-19T07:25:42.363Z,52416
2017-05-19T07:26:23.314Z,52832
2017-05-19T07:27:04.214Z,55040
2017-05-19T07:27:45.179Z,59552
2017-05-19T07:28:26.084Z,65216
2017-05-19T07:29:06.991Z,65376
2017-05-19T07:29:47.914Z,65056
2017-05-19T07:30:28.817Z,65152
2017-05-19T07:31:09.731Z,65440
2017-05-19T07:31:50.638Z,65952
2017-05-19T07:32:31.554Z,66784
2017-05-19T07:33:12.470Z,67584
2017-05-19T07:33:53.376Z,67776
2017-05-19T07:34:34.289Z,68640
2017-05-19T07:35:15.325Z,69472
2017-05-19T07:35:56.288Z,71104
2017-05-19T07:36:37.272Z,73024
2017-05-19T07:37:18.133Z,74464
2017-05-19T07:37:59.051Z,74592
2017-05-19T07:38:39.938Z,73632
2017-05-19T07:39:20.846Z,73344
2017-05-19T07:40:01.745Z,70912
2017-05-19T07:40:42.670Z,68928
2017-05-19T07:41:23.572Z,68160
2017-05-19T07:42:04.463Z,65248
2017-05-19T07:42:45.369Z,61920
2017-05-19T07:43:26.291Z,59680
2017-05-19T07:44:07.211Z,58432
2017-05-19T07:44:48.126Z,49920
2017-05-19T07:45:29.079Z,34976
2017-05-19T07:47:28.894Z,12968
2017-05-19T07:48:09.816Z,12812
2017-05-19T07:48:50.723Z,12748
2017-05-19T07:49:31.648Z,12772
2017-05-19T07:50:12.563Z,12744
2017-05-19T07:50:53.481Z,12740
2017-05-19T07:51:34.391Z,12724
2017-05-19T07:52:15.312Z,12712
2017-05-19T07:52:56.234Z,12700
2017-05-19T07:53:37.149Z,12668
2017-05-19T07:54:18.060Z,12656
2017-05-19T07:54:58.971Z,12648
2017-05-19T07:55:39.909Z,12748
2017-05-19T07:56:20.839Z,12732
2017-05-19T07:57:01.764Z,12800
2017-05-19T07:57:42.676Z,12796
2017-05-19T07:58:23.597Z,12820
2017-05-19T07:59:04.522Z,12816
2017-05-19T07:59:45.418Z,12852
2017-05-19T08:00:26.342Z,12864
2017-05-19T08:01:07.233Z,12868
2017-05-19T08:01:48.158Z,12880
2017-05-19T08:02:29.066Z,13004
2017-05-19T08:03:09.994Z,13216
2017-05-19T08:03:50.907Z,13880
2017-05-19T08:04:31.826Z,24640
2017-05-19T08:05:12.745Z,44512
2017-05-19T08:05:53.657Z,64416
2017-05-19T08:06:34.573Z,75104
2017-05-19T08:07:15.486Z,68384
2017-05-19T08:07:56.396Z,62752
2017-05-19T08:08:37.304Z,64384
2017-05-19T08:09:18.213Z,69920
2017-05-19T08:09:59.125Z,73856
2017-05-19T08:10:40.060Z,74400
2017-05-19T08:11:20.969Z,75744
2017-05-19T08:12:01.881Z,76544
2017-05-19T08:12:42.809Z,76896
2017-05-19T08:13:23.729Z,77184
2017-05-19T08:14:04.673Z,76960
2017-05-19T08:14:45.597Z,76704
2017-05-19T08:15:26.519Z,76704
2017-05-19T08:16:07.433Z,77440
2017-05-19T08:16:48.395Z,77728
2017-05-19T08:17:29.254Z,78432
2017-05-19T08:18:10.178Z,78688
2017-05-19T08:18:51.113Z,78176
2017-05-19T08:19:32.031Z,77312
2017-05-19T08:20:12.953Z,68000
2017-05-19T08:20:53.861Z,66240
2017-05-19T08:21:34.779Z,69344
2017-05-19T08:22:15.687Z,77504
2017-05-19T08:22:56.609Z,73728
2017-05-19T08:23:37.509Z,70784
2017-05-19T08:24:18.431Z,71040
2017-05-19T08:24:59.353Z,73952
2017-05-19T08:25:40.262Z,78464
2017-05-19T08:26:21.177Z,84480
2017-05-19T08:27:02.102Z,89984
2017-05-19T08:27:43.018Z,90496
2017-05-19T08:28:23.935Z,88672
2017-05-19T08:29:04.845Z,86368
2017-05-19T08:29:45.751Z,85152
2017-05-19T08:30:26.670Z,84768
2017-05-19T08:31:07.607Z,83232
2017-05-19T08:31:48.547Z,83008
2017-05-19T08:32:29.499Z,83136
2017-05-19T08:33:10.395Z,83744
2017-05-19T08:33:51.321Z,76128
2017-05-19T08:34:32.225Z,72160
2017-05-19T08:35:13.158Z,70496
2017-05-19T08:35:54.073Z,74048
2017-05-19T08:36:35.075Z,82720
2017-05-19T08:37:16.001Z,80192
2017-05-19T08:37:56.922Z,78080
2017-05-19T08:38:37.851Z,74688
2017-05-19T08:39:18.812Z,72160
2017-05-19T08:39:59.722Z,71232
2017-05-19T08:40:40.642Z,71904
2017-05-19T08:41:21.559Z,71872
2017-05-19T08:42:02.478Z,73152
2017-05-19T08:42:43.409Z,77280
2017-05-19T08:43:24.323Z,82432
2017-05-19T08:44:05.270Z,84800
2017-05-19T08:44:46.172Z,88192
2017-05-19T08:45:27.110Z,91296
2017-05-19T08:46:08.024Z,93536
2017-05-19T08:46:48.932Z,94784
2017-05-19T08:47:29.860Z,94592
2017-05-19T08:48:10.772Z,94016
2017-05-19T08:48:51.681Z,92160
2017-05-19T08:49:32.617Z,90432
2017-05-19T08:50:13.535Z,89024
2017-05-19T08:50:54.461Z,88096
2017-05-19T08:51:35.394Z,88160
2017-05-19T08:52:16.303Z,87296
2017-05-19T08:52:57.200Z,87616
2017-05-19T08:53:38.124Z,88544
2017-05-19T08:54:19.042Z,85024
2017-05-19T08:54:59.987Z,74400
2017-05-19T08:55:40.921Z,73952
2017-05-19T08:56:21.863Z,82336
2017-05-19T08:57:02.778Z,88480
2017-05-19T08:57:43.725Z,87488
2017-05-19T08:58:24.636Z,85120
2017-05-19T08:59:05.548Z,83296
2017-05-19T08:59:46.475Z,81888
2017-05-19T09:00:27.387Z,81248
2017-05-19T09:01:08.311Z,81344
2017-05-19T09:01:49.230Z,84352
2017-05-19T09:02:30.187Z,83296
2017-05-19T09:03:11.104Z,84256
2017-05-19T09:03:52.024Z,85760
2017-05-19T09:04:32.939Z,79104
2017-05-19T09:05:13.851Z,81792
2017-05-19T09:05:54.784Z,74496
2017-05-19T09:06:35.691Z,72192
2017-05-19T09:07:16.612Z,70400
2017-05-19T09:07:57.527Z,69600
2017-05-19T09:08:38.445Z,69152
2017-05-19T09:09:19.360Z,69120
2017-05-19T09:10:00.282Z,70240
2017-05-19T09:10:41.203Z,68576
2017-05-19T09:11:22.120Z,78336
2017-05-19T09:12:03.043Z,80800
2017-05-19T09:12:43.961Z,87488
2017-05-19T09:13:24.863Z,90624
2017-05-19T09:14:05.775Z,86592
2017-05-19T09:14:46.705Z,77440
2017-05-19T09:15:27.611Z,77376
2017-05-19T09:16:08.533Z,82080
2017-05-19T09:16:49.500Z,91392
2017-05-19T09:17:30.387Z,88768
2017-05-19T09:18:11.302Z,84224
2017-05-19T09:18:52.223Z,80000
2017-05-19T09:19:33.139Z,74496
2017-05-19T09:20:14.054Z,69600
2017-05-19T09:20:54.986Z,64864
2017-05-19T09:21:35.913Z,63040
2017-05-19T09:22:16.835Z,63360
2017-05-19T09:22:57.747Z,64608